Time;durP1;ratioP1;P1;durP2;ratioP2;P2;SDS_P1;SDS_P2;PMS_P1;PMS_P2;Temp;Humidity;BMP_temperature;BMP_pressure;BME280_temperature;BME280_humidity;BME280_pressure;Samples;Min_cycle;Max_cycle;Signal;HPM_P1;HPM_P2
2023/05/09 00:01:30;;;;;;;;;;;;;;;2.90;40.98;97661.28;6294939;28;19920;-73
2023/05/09 00:04:34;;;;;;;;;;;;;;;2.91;41.03;97663.81;6295024;28;19920;-73
2023/05/09 00:07:37;;;;;;;;;;;;;;;3.05;41.31;97655.72;6294868;28;19921;-74
2023/05/09 00:10:43;;;;;;;;;;;;;;;3.06;41.48;97662.66;6295223;28;19924;-74
2023/05/09 00:13:48;;;;;;;;;;;;;;;2.99;41.43;97666.25;6294536;28;19924;-74
2023/05/09 00:16:52;;;;;;;;;;;;;;;2.95;41.70;97666.38;6294079;28;20313;-74
2023/05/09 00:19:54;;;;;;;;;;;;;;;3.00;41.85;97673.19;6294933;28;19924;-73
2023/05/09 00:22:57;;;;;;;;;;;;;;;2.96;42.11;97671.53;6298394;28;19920;-74
2023/05/09 00:26:03;;;;;;;;;;;;;;;3.01;41.98;97674.88;6299765;28;20351;-74
2023/05/09 00:29:04;;;;;;;;;;;;;;;2.90;41.68;97675.13;6299129;28;20058;-74
2023/05/09 00:32:08;;;;;;;;;;;;;;;2.83;42.11;97667.47;6281718;28;20003;-75
2023/05/09 00:35:12;;;;;;;;;;;;;;;3.07;42.36;97685.16;6299683;28;20011;-74
2023/05/09 00:38:15;;;;;;;;;;;;;;;2.96;42.37;97676.72;6299496;28;20026;-73
2023/05/09 00:41:18;;;;;;;;;;;;;;;2.85;42.45;97686.50;6299594;28;19920;-73
2023/05/09 00:44:21;;;;;;;;;;;;;;;2.88;42.37;97683.84;6298700;28;19931;-73
2023/05/09 00:47:28;;;;;;;;;;;;;;;2.84;42.63;97687.41;6299373;28;20497;-74
2023/05/09 00:50:34;;;;;;;;;;;;;;;2.85;42.58;97689.09;6299506;28;20340;-73
2023/05/09 00:53:35;;;;;;;;;;;;;;;2.91;42.88;97694.16;6298807;28;20495;-74
2023/05/09 00:56:36;;;;;;;;;;;;;;;2.85;42.81;97699.50;6298223;28;19920;-74
2023/05/09 00:59:40;;;;;;;;;;;;;;;2.92;42.91;97699.34;6298712;28;20390;-73
2023/05/09 01:02:47;;;;;;;;;;;;;;;2.93;43.02;97701.03;6298770;28;19927;-73
2023/05/09 01:05:51;;;;;;;;;;;;;;;3.03;42.91;97719.03;6297899;28;19920;-73
2023/05/09 01:09:02;;;;;;;;;;;;;;;3.02;42.48;97712.13;6298144;28;19916;-73
2023/05/09 01:12:34;;;;;;;;;;;;;;;3.09;42.82;97709.38;6298810;28;19920;-73
2023/05/09 01:15:38;;;;;;;;;;;;;;;3.24;42.85;97712.53;6297068;28;20240;-74
2023/05/09 01:18:48;;;;;;;;;;;;;;;3.42;42.21;97722.50;6297139;28;19920;-73
2023/05/09 01:21:50;;;;;;;;;;;;;;;3.46;42.09;97721.56;6296601;28;20015;-74
2023/05/09 01:25:04;;;;;;;;;;;;;;;3.63;41.69;97730.75;6296842;28;20451;-74
2023/05/09 01:28:13;;;;;;;;;;;;;;;3.64;41.61;97732.44;6295749;28;19920;-72
2023/05/09 01:31:14;;;;;;;;;;;;;;;3.70;41.59;97738.34;6295830;28;19927;-73
2023/05/09 01:34:17;;;;;;;;;;;;;;;3.81;41.39;97738.09;6295083;28;19929;-74
2023/05/09 01:37:28;;;;;;;;;;;;;;;3.86;41.40;97738.84;6296580;28;19920;-73
2023/05/09 01:40:32;;;;;;;;;;;;;;;3.86;41.18;97738.84;6296228;28;19920;-74
2023/05/09 01:43:35;;;;;;;;;;;;;;;3.95;41.43;97738.63;6296219;28;20370;-73
2023/05/09 01:46:37;;;;;;;;;;;;;;;4.00;41.19;97746.31;6295868;28;19955;-73
2023/05/09 01:49:45;;;;;;;;;;;;;;;4.03;40.95;97749.69;6296631;28;20069;-73
2023/05/09 01:52:51;;;;;;;;;;;;;;;4.04;41.10;97751.41;6296501;28;20378;-73
2023/05/09 01:55:53;;;;;;;;;;;;;;;4.19;40.91;97759.72;6295685;28;19920;-74
2023/05/09 01:58:57;;;;;;;;;;;;;;;4.13;40.89;97757.28;6295866;28;19916;-74
2023/05/09 02:01:59;;;;;;;;;;;;;;;4.09;40.67;97746.09;6294983;28;19927;-74
2023/05/09 02:05:01;;;;;;;;;;;;;;;4.26;40.36;97758.69;6296139;28;19920;-74
2023/05/09 02:08:07;;;;;;;;;;;;;;;4.22;40.54;97762.28;6295994;28;19921;-73
2023/05/09 02:11:10;;;;;;;;;;;;;;;4.30;40.18;97765.50;6295355;28;20296;-73
2023/05/09 02:14:13;;;;;;;;;;;;;;;4.41;40.19;97765.25;6246093;28;1423418;-74
2023/05/09 02:17:16;;;;;;;;;;;;;;;4.44;40.02;97768.63;6296706;28;19920;-73
2023/05/09 02:20:19;;;;;;;;;;;;;;;4.49;39.82;97771.13;6297520;28;19920;-73
2023/05/09 02:23:23;;;;;;;;;;;;;;;4.70;39.93;97773.16;6296875;28;19920;-73
2023/05/09 02:26:29;;;;;;;;;;;;;;;4.68;39.68;97766.28;6297058;28;19920;-74
2023/05/09 02:29:38;;;;;;;;;;;;;;;4.83;39.51;97776.28;6295873;28;19920;-74
2023/05/09 02:32:42;;;;;;;;;;;;;;;4.91;39.74;97776.06;6295968;28;19950;-73
2023/05/09 02:35:45;;;;;;;;;;;;;;;4.94;39.31;97775.97;6295736;28;19920;-74
2023/05/09 02:38:48;;;;;;;;;;;;;;;5.03;39.48;97777.47;6296610;28;19920;-73
2023/05/09 02:41:50;;;;;;;;;;;;;;;5.02;39.20;97770.56;6295917;28;19920;-73
2023/05/09 02:44:51;;;;;;;;;;;;;;;5.12;39.44;97772.00;6295510;28;19931;-73
2023/05/09 02:47:52;;;;;;;;;;;;;;;5.26;38.80;97769.84;6295268;28;20133;-74
2023/05/09 02:50:57;;;;;;;;;;;;;;;5.40;38.78;97772.03;6296312;28;19920;-73
2023/05/09 02:54:02;;;;;;;;;;;;;;;5.52;38.52;97773.44;6296106;28;19916;-74
2023/05/09 02:57:06;;;;;;;;;;;;;;;5.72;38.09;97773.69;6296351;28;19963;-74
2023/05/09 03:00:10;;;;;;;;;;;;;;;5.91;37.55;97767.88;6295909;28;19916;-73
2023/05/09 03:03:12;;;;;;;;;;;;;;;6.14;36.85;97759.31;6294937;28;19921;-74
2023/05/09 03:06:13;;;;;;;;;;;;;;;6.28;36.03;97760.59;6294949;28;20023;-75
2023/05/09 03:09:17;;;;;;;;;;;;;;;6.48;35.82;97785.19;6294502;28;19920;-74
2023/05/09 03:12:20;;;;;;;;;;;;;;;6.70;34.51;97777.47;6295565;28;19920;-73
2023/05/09 03:15:21;;;;;;;;;;;;;;;6.87;33.97;97779.50;6294661;28;20345;-74
2023/05/09 03:18:25;;;;;;;;;;;;;;;6.98;34.04;97782.56;6278335;28;19920;-74
2023/05/09 03:21:30;;;;;;;;;;;;;;;7.11;33.92;97786.47;6278058;28;19920;-74
2023/05/09 03:24:36;;;;;;;;;;;;;;;7.32;33.69;97784.81;6295207;28;20309;-74
2023/05/09 03:27:39;;;;;;;;;;;;;;;7.57;33.58;97789.97;6294807;28;19920;-74
2023/05/09 03:30:43;;;;;;;;;;;;;;;7.69;33.36;97795.66;6295159;28;19920;-74
2023/05/09 03:33:45;;;;;;;;;;;;;;;7.76;33.51;97805.00;6294388;28;20325;-74
2023/05/09 03:36:50;;;;;;;;;;;;;;;7.85;33.18;97794.16;6295973;28;19920;-74
2023/05/09 03:39:52;;;;;;;;;;;;;;;7.95;33.03;97800.72;6294941;28;19920;-74
2023/05/09 03:42:58;;;;;;;;;;;;;;;8.14;32.85;97810.50;6294943;28;19927;-74
2023/05/09 03:45:59;;;;;;;;;;;;;;;8.14;33.00;97810.50;6294746;28;19927;-75
2023/05/09 03:49:05;;;;;;;;;;;;;;;8.24;32.51;97806.59;6295255;28;19924;-74
2023/05/09 03:52:10;;;;;;;;;;;;;;;8.46;32.15;97812.69;6295315;28;20302;-75
2023/05/09 03:55:12;;;;;;;;;;;;;;;8.63;32.13;97808.50;6294074;28;19920;-74
2023/05/09 03:58:15;;;;;;;;;;;;;;;8.82;31.79;97806.81;6294965;28;20386;-74
2023/05/09 04:01:20;;;;;;;;;;;;;;;9.01;31.46;97809.50;6295116;28;20308;-75
2023/05/09 04:04:22;;;;;;;;;;;;;;;9.27;31.05;97816.22;6259924;28;20018;-74
2023/05/09 04:07:28;;;;;;;;;;;;;;;9.43;30.80;97806.75;6294975;28;19920;-75
2023/05/09 04:10:31;;;;;;;;;;;;;;;9.70;30.35;97824.78;6294552;28;20373;-74
2023/05/09 04:13:32;;;;;;;;;;;;;;;10.00;29.96;97825.13;6294249;28;19920;-74
2023/05/09 04:16:35;;;;;;;;;;;;;;;10.24;29.78;97831.00;6294645;28;19927;-74
2023/05/09 04:19:42;;;;;;;;;;;;;;;10.47;29.75;97832.56;6294866;28;19927;-74
2023/05/09 04:22:46;;;;;;;;;;;;;;;10.76;29.56;97833.75;6294715;28;20404;-73
2023/05/09 04:25:50;;;;;;;;;;;;;;;11.10;29.23;97837.28;6293951;28;19927;-73
2023/05/09 04:28:51;;;;;;;;;;;;;;;11.39;29.11;97837.56;6293697;28;20414;-74
2023/05/09 04:31:55;;;;;;;;;;;;;;;11.75;28.47;97831.22;6294149;28;20405;-74
2023/05/09 04:34:58;;;;;;;;;;;;;;;12.11;28.17;97842.41;6294678;28;19921;-75
2023/05/09 04:38:03;;;;;;;;;;;;;;;12.61;27.29;97834.38;6294636;28;19935;-73
2023/05/09 04:41:06;;;;;;;;;;;;;;;14.14;25.95;97846.25;6294846;28;19920;-74
2023/05/09 04:44:10;;;;;;;;;;;;;;;16.17;24.40;97844.88;6277105;28;19920;-75
2023/05/09 04:47:12;;;;;;;;;;;;;;;18.25;22.95;97851.25;6293124;28;19927;-74
2023/05/09 04:50:15;;;;;;;;;;;;;;;20.40;20.88;97857.97;6294330;28;19920;-74
2023/05/09 04:53:21;;;;;;;;;;;;;;;22.39;20.70;97862.72;6294329;28;19921;-74
2023/05/09 04:56:24;;;;;;;;;;;;;;;23.90;19.24;97856.50;6294544;28;19920;-74
2023/05/09 04:59:25;;;;;;;;;;;;;;;25.36;17.43;97859.81;6293938;28;19920;-73
2023/05/09 05:02:29;;;;;;;;;;;;;;;26.43;17.02;97861.25;6294299;28;20023;-75
2023/05/09 05:05:30;;;;;;;;;;;;;;;27.69;16.82;97865.50;6293688;28;19975;-73
2023/05/09 05:08:31;;;;;;;;;;;;;;;28.82;15.35;97867.09;6278859;28;19967;-74
2023/05/09 05:11:35;;;;;;;;;;;;;;;29.21;16.62;97854.19;6298679;28;19920;-73
2023/05/09 05:14:37;;;;;;;;;;;;;;;29.61;15.65;97858.09;6297999;28;20463;-74
2023/05/09 05:17:38;;;;;;;;;;;;;;;30.59;13.82;97853.50;6297517;28;20516;-74
2023/05/09 05:20:39;;;;;;;;;;;;;;;31.61;15.18;97857.09;6297653;28;19919;-73
2023/05/09 05:23:43;;;;;;;;;;;;;;;32.80;14.60;97868.78;6298313;28;19925;-73
2023/05/09 05:26:46;;;;;;;;;;;;;;;33.89;13.99;97864.09;6298481;28;19920;-73
2023/05/09 05:29:52;;;;;;;;;;;;;;;35.06;12.86;97870.34;6298335;28;19924;-74
2023/05/09 05:32:55;;;;;;;;;;;;;;;35.66;12.89;97860.41;6297394;28;19959;-74
2023/05/09 05:35:56;;;;;;;;;;;;;;;36.36;11.34;97870.53;6297522;28;20014;-73
2023/05/09 05:38:59;;;;;;;;;;;;;;;36.74;11.54;97863.66;6297699;28;19928;-73
2023/05/09 05:42:05;;;;;;;;;;;;;;;37.08;11.40;97859.97;6297756;28;19920;-73
2023/05/09 05:45:06;;;;;;;;;;;;;;;37.39;11.08;97849.56;6279646;28;19920;-73
2023/05/09 05:48:08;;;;;;;;;;;;;;;37.52;11.26;97853.94;6297823;28;19920;-74
2023/05/09 05:51:10;;;;;;;;;;;;;;;37.75;11.04;97847.44;6297203;28;19920;-73
2023/05/09 05:54:13;;;;;;;;;;;;;;;38.36;9.81;97842.00;6297812;28;20010;-73
2023/05/09 05:57:16;;;;;;;;;;;;;;;38.54;9.66;97854.66;6296555;28;19927;-74
2023/05/09 06:00:22;;;;;;;;;;;;;;;38.65;8.03;97845.44;6297693;28;19920;-74
2023/05/09 06:03:23;;;;;;;;;;;;;;;38.05;9.41;97846.25;6296744;28;19924;-74
2023/05/09 06:06:26;;;;;;;;;;;;;;;37.49;8.40;97848.94;6297148;28;19929;-74
2023/05/09 06:09:34;;;;;;;;;;;;;;;36.97;9.39;97852.63;6297602;28;19954;-74
2023/05/09 06:12:37;;;;;;;;;;;;;;;35.62;9.53;97837.31;6296512;28;19927;-74
2023/05/09 06:15:41;;;;;;;;;;;;;;;34.76;10.78;97836.66;6297217;28;19920;-73
2023/05/09 06:18:42;;;;;;;;;;;;;;;34.95;9.43;97835.56;6295221;28;20381;-74
2023/05/09 06:21:46;;;;;;;;;;;;;;;35.12;9.63;97830.28;6296709;28;19924;-73
2023/05/09 06:24:49;;;;;;;;;;;;;;;36.23;8.94;97830.50;6297110;28;20020;-73
2023/05/09 06:27:53;;;;;;;;;;;;;;;37.25;7.93;97826.25;6295751;28;19921;-73
2023/05/09 06:30:57;;;;;;;;;;;;;;;37.60;7.25;97833.47;6295856;28;19927;-73
2023/05/09 06:34:01;;;;;;;;;;;;;;;38.72;7.64;97832.31;6296503;28;20404;-73
2023/05/09 06:37:05;;;;;;;;;;;;;;;38.87;7.40;97830.84;6296514;28;19920;-75
2023/05/09 06:40:06;;;;;;;;;;;;;;;39.12;7.62;97839.34;6296057;28;20065;-74
2023/05/09 06:43:12;;;;;;;;;;;;;;;39.48;6.99;97836.97;6296527;28;19920;-74
2023/05/09 06:46:16;;;;;;;;;;;;;;;40.07;6.80;97833.28;6295793;28;19959;-74
2023/05/09 06:49:19;;;;;;;;;;;;;;;40.30;7.66;97837.56;6295960;28;19927;-75
2023/05/09 06:52:25;;;;;;;;;;;;;;;40.32;6.78;97833.47;6295683;28;20305;-74
2023/05/09 06:55:26;;;;;;;;;;;;;;;40.24;7.50;97833.13;6294928;28;19920;-73
2023/05/09 06:58:30;;;;;;;;;;;;;;;41.47;7.08;97834.34;6295936;28;19921;-75
2023/05/09 07:01:31;;;;;;;;;;;;;;;41.64;6.98;97828.56;6295294;28;19924;-73
2023/05/09 07:04:33;;;;;;;;;;;;;;;41.86;5.92;97819.97;6295000;28;19928;-74
2023/05/09 07:07:36;;;;;;;;;;;;;;;42.38;6.53;97821.53;6295832;28;19921;-73
2023/05/09 07:10:40;;;;;;;;;;;;;;;43.04;6.21;97818.44;6295615;28;20346;-75
2023/05/09 07:13:43;;;;;;;;;;;;;;;43.95;6.47;97815.25;6294503;28;19921;-75
2023/05/09 07:16:45;;;;;;;;;;;;;;;43.55;5.82;97808.97;6294851;28;19924;-73
2023/05/09 07:19:46;;;;;;;;;;;;;;;43.43;6.52;97808.50;6294813;28;20444;-73
2023/05/09 07:22:51;;;;;;;;;;;;;;;43.72;4.80;97809.38;6295365;28;19920;-73
2023/05/09 07:25:57;;;;;;;;;;;;;;;43.33;6.13;97803.03;6295600;28;19920;-73
2023/05/09 07:28:58;;;;;;;;;;;;;;;43.21;6.07;97801.47;6295261;28;19920;-74
2023/05/09 07:32:01;;;;;;;;;;;;;;;42.95;5.78;97791.66;6293889;28;20413;-74
2023/05/09 07:35:05;;;;;;;;;;;;;;;42.53;6.38;97795.75;6294997;28;19920;-75
2023/05/09 07:38:10;;;;;;;;;;;;;;;41.33;6.34;97778.81;6294551;28;20515;-73
2023/05/09 07:41:13;;;;;;;;;;;;;;;40.43;6.24;97781.94;6294133;28;20305;-74
2023/05/09 07:44:17;;;;;;;;;;;;;;;39.60;6.71;97766.00;6294439;28;19927;-74
2023/05/09 07:47:20;;;;;;;;;;;;;;;38.98;6.52;97766.56;6294740;28;19920;-75
2023/05/09 07:50:22;;;;;;;;;;;;;;;37.91;6.67;97758.69;6294234;28;19920;-75
2023/05/09 07:53:26;;;;;;;;;;;;;;;37.41;7.07;97748.56;6295030;28;19920;-75
2023/05/09 07:56:31;;;;;;;;;;;;;;;36.75;6.97;97761.16;6294570;28;20382;-74
2023/05/09 07:59:32;;;;;;;;;;;;;;;35.69;8.04;97753.16;6293419;28;19920;-74
2023/05/09 08:02:36;;;;;;;;;;;;;;;35.35;7.67;97754.78;6293160;28;20010;-74
2023/05/09 08:05:39;;;;;;;;;;;;;;;34.98;7.37;97747.56;6293872;28;19927;-74
2023/05/09 08:08:43;;;;;;;;;;;;;;;34.35;7.93;97748.88;6294830;28;19970;-74
2023/05/09 08:11:44;;;;;;;;;;;;;;;34.18;7.62;97742.38;6294374;28;19924;-75
2023/05/09 08:14:47;;;;;;;;;;;;;;;33.90;7.96;97738.25;6294334;28;20275;-75
2023/05/09 08:17:55;;;;;;;;;;;;;;;33.47;7.76;97736.38;6294797;28;19924;-75
2023/05/09 08:20:58;;;;;;;;;;;;;;;32.87;8.07;97730.59;6293990;28;19920;-73
2023/05/09 08:24:00;;;;;;;;;;;;;;;32.23;8.23;97726.94;6294073;28;20393;-74
2023/05/09 08:27:06;;;;;;;;;;;;;;;31.71;8.71;97735.06;6294660;28;19920;-74
2023/05/09 08:30:08;;;;;;;;;;;;;;;31.23;8.77;97735.31;6293850;28;19916;-74
2023/05/09 08:33:12;;;;;;;;;;;;;;;30.20;8.76;97721.97;6294546;28;19920;-75
2023/05/09 08:36:15;;;;;;;;;;;;;;;30.08;9.03;97720.03;6294818;28;19920;-73
2023/05/09 08:39:17;;;;;;;;;;;;;;;30.50;9.16;97718.09;6294097;28;19920;-73
2023/05/09 08:42:21;;;;;;;;;;;;;;;29.95;8.94;97716.22;6295944;28;19924;-74
2023/05/09 08:45:26;;;;;;;;;;;;;;;29.49;9.32;97714.06;6298506;28;19947;-74
2023/05/09 08:48:27;;;;;;;;;;;;;;;29.14;9.19;97702.38;6297983;28;20023;-73
2023/05/09 08:51:31;;;;;;;;;;;;;;;29.14;9.27;97712.38;6298132;28;19992;-74
2023/05/09 08:54:33;;;;;;;;;;;;;;;29.44;9.06;97696.72;6298407;28;19920;-74
2023/05/09 08:57:35;;;;;;;;;;;;;;;29.50;9.27;97701.38;6297722;28;20393;-74
2023/05/09 09:00:37;;;;;;;;;;;;;;;29.40;9.06;97707.13;6297451;28;19920;-74
2023/05/09 09:03:39;;;;;;;;;;;;;;;28.90;9.20;97694.63;6298362;28;19927;-75
2023/05/09 09:06:41;;;;;;;;;;;;;;;28.63;9.49;97695.25;6298149;28;19920;-74
2023/05/09 09:09:46;;;;;;;;;;;;;;;28.69;9.51;97693.63;6297940;28;19926;-74
2023/05/09 09:12:50;;;;;;;;;;;;;;;28.67;9.62;97690.25;6297534;28;19974;-75
2023/05/09 09:15:57;;;;;;;;;;;;;;;28.31;9.77;97693.00;6298476;28;19924;-73
2023/05/09 09:18:59;;;;;;;;;;;;;;;28.13;9.75;97680.75;6297845;28;19930;-74
2023/05/09 09:22:05;;;;;;;;;;;;;;;28.15;9.83;97686.81;6298329;28;19920;-74
2023/05/09 09:25:09;;;;;;;;;;;;;;;28.74;9.58;97682.22;6298703;28;20202;-73
2023/05/09 09:28:11;;;;;;;;;;;;;;;28.86;9.51;97683.34;6298104;28;19943;-74
2023/05/09 09:31:26;;;;;;;;;;;;;;;29.17;9.39;97684.88;6297628;28;19927;-74
2023/05/09 09:34:29;;;;;;;;;;;;;;;29.68;8.90;97681.88;6298093;28;19920;-73
2023/05/09 09:37:32;;;;;;;;;;;;;;;29.72;9.13;97677.72;6297714;28;19920;-74
2023/05/09 09:40:38;;;;;;;;;;;;;;;30.42;8.90;97676.50;6297092;28;19927;-74
2023/05/09 09:43:44;;;;;;;;;;;;;;;31.22;8.48;97681.97;6297383;28;19928;-73
2023/05/09 09:46:50;;;;;;;;;;;;;;;31.62;8.53;97683.81;6298083;28;19920;-74
2023/05/09 09:49:51;;;;;;;;;;;;;;;31.73;8.46;97670.41;6296789;28;19943;-73
2023/05/09 09:52:54;;;;;;;;;;;;;;;31.93;7.94;97678.50;6297167;28;19927;-74
2023/05/09 09:55:55;;;;;;;;;;;;;;;32.13;7.89;97686.59;6297543;28;19920;-74
2023/05/09 09:59:10;;;;;;;;;;;;;;;31.93;7.94;97670.34;6297711;28;19944;-75
2023/05/09 10:02:11;;;;;;;;;;;;;;;32.13;7.75;97664.81;6296572;28;20003;-75
2023/05/09 10:05:19;;;;;;;;;;;;;;;32.57;7.94;97664.97;6279838;28;20317;-74
2023/05/09 10:08:20;;;;;;;;;;;;;;;32.55;7.73;97667.91;6296736;28;20059;-74
2023/05/09 10:11:26;;;;;;;;;;;;;;;31.81;8.15;97665.75;6297253;28;20076;-73
2023/05/09 10:14:29;;;;;;;;;;;;;;;31.12;8.33;97668.00;6296250;28;19928;-74
2023/05/09 10:17:34;;;;;;;;;;;;;;;30.48;8.55;97657.72;6296907;28;19920;-74
2023/05/09 10:20:42;;;;;;;;;;;;;;;30.27;8.62;97648.72;6296802;28;19920;-75
2023/05/09 10:23:47;;;;;;;;;;;;;;;29.97;8.79;97642.75;6296030;28;20376;-75
2023/05/09 10:26:49;;;;;;;;;;;;;;;29.13;9.10;97641.09;6295993;28;19924;-74
2023/05/09 10:29:56;;;;;;;;;;;;;;;28.18;9.54;97636.88;6296349;28;20345;-75
2023/05/09 10:33:04;;;;;;;;;;;;;;;27.45;9.85;97636.00;6296715;28;20245;-74
2023/05/09 10:36:06;;;;;;;;;;;;;;;27.08;10.26;97632.31;6296086;28;19920;-73
2023/05/09 10:39:09;;;;;;;;;;;;;;;26.89;10.22;97639.09;6295812;28;19942;-74
2023/05/09 10:42:16;;;;;;;;;;;;;;;26.41;10.51;97635.78;6296363;28;19921;-74
2023/05/09 10:45:22;;;;;;;;;;;;;;;26.13;10.68;97635.53;6296339;28;20015;-73
2023/05/09 10:48:24;;;;;;;;;;;;;;;25.98;10.76;97635.41;6296081;28;19920;-73
2023/05/09 10:51:27;;;;;;;;;;;;;;;25.64;10.86;97638.44;6295298;28;20457;-75
2023/05/09 10:54:35;;;;;;;;;;;;;;;25.81;10.84;97637.34;6295056;28;19920;-74
2023/05/09 10:57:38;;;;;;;;;;;;;;;25.98;10.73;97624.63;6295472;28;19920;-74
2023/05/09 11:00:42;;;;;;;;;;;;;;;26.01;10.67;97626.13;6296026;28;20386;-74
2023/05/09 11:03:52;;;;;;;;;;;;;;;26.33;10.26;97628.63;6295805;28;19920;-74
2023/05/09 11:06:58;;;;;;;;;;;;;;;26.42;10.58;97624.81;6295466;28;19920;-74
2023/05/09 11:10:08;;;;;;;;;;;;;;;26.22;10.33;97620.13;6296125;28;19920;-74
2023/05/09 11:13:12;;;;;;;;;;;;;;;26.30;10.50;97611.94;6296454;28;20122;-74
2023/05/09 11:16:13;;;;;;;;;;;;;;;26.40;10.20;97613.38;6294652;28;19920;-78
2023/05/09 11:19:32;;;;;;;;;;;;;;;25.82;10.81;97612.09;6296115;28;19920;-76
2023/05/09 11:22:37;;;;;;;;;;;;;;;25.14;11.20;97613.56;6295431;28;19921;-75
2023/05/09 11:25:46;;;;;;;;;;;;;;;24.98;11.35;97603.66;6295363;28;19974;-75
2023/05/09 11:28:52;;;;;;;;;;;;;;;24.86;11.41;97610.41;6295208;28;19920;-75
2023/05/09 11:32:06;;;;;;;;;;;;;;;24.75;11.25;97602.72;6295462;28;19985;-75
2023/05/09 11:35:13;;;;;;;;;;;;;;;24.73;11.44;97610.94;6294705;28;20412;-74
2023/05/09 11:38:19;;;;;;;;;;;;;;;24.42;11.37;97608.09;6295019;28;19927;-74
2023/05/09 11:41:21;;;;;;;;;;;;;;;24.16;11.59;97605.56;6294646;28;19928;-74
2023/05/09 11:44:23;;;;;;;;;;;;;;;24.17;11.81;97605.38;6294534;28;19920;-75
2023/05/09 11:47:24;;;;;;;;;;;;;;;24.13;11.84;97606.72;6294516;28;20065;-74
2023/05/09 11:50:28;;;;;;;;;;;;;;;24.04;11.73;97596.16;6294796;28;19920;-75
2023/05/09 11:53:31;;;;;;;;;;;;;;;23.78;11.92;97593.56;6293770;28;20443;-73
2023/05/09 11:56:37;;;;;;;;;;;;;;;23.92;11.95;97590.22;6294484;28;19920;-74
2023/05/09 11:59:38;;;;;;;;;;;;;;;24.23;11.94;97584.22;6294094;28;19920;-74
2023/05/09 12:02:42;;;;;;;;;;;;;;;24.13;11.86;97576.31;6294969;28;19927;-75
2023/05/09 12:05:43;;;;;;;;;;;;;;;23.84;12.10;97582.19;6293710;28;19928;-74
2023/05/09 12:08:49;;;;;;;;;;;;;;;23.58;12.24;97577.75;6294860;28;20305;-74
2023/05/09 12:11:53;;;;;;;;;;;;;;;23.20;12.50;97582.63;6293706;28;19920;-74
2023/05/09 12:14:54;;;;;;;;;;;;;;;23.17;12.38;97591.00;6293224;28;19924;-74
2023/05/09 12:18:03;;;;;;;;;;;;;;;23.42;12.38;97578.53;6298132;28;20368;-75
2023/05/09 12:21:06;;;;;;;;;;;;;;;23.33;12.72;97579.50;6299114;28;19928;-74
2023/05/09 12:24:13;;;;;;;;;;;;;;;23.03;12.62;97583.56;6299693;28;19920;-74
2023/05/09 12:27:17;;;;;;;;;;;;;;;22.91;12.61;97579.47;6299572;28;19927;-74
2023/05/09 12:30:23;;;;;;;;;;;;;;;22.65;12.88;97585.69;6299844;28;19920;-74
2023/05/09 12:33:26;;;;;;;;;;;;;;;22.26;13.07;97579.88;6298526;28;19927;-75
2023/05/09 12:36:33;;;;;;;;;;;;;;;21.55;13.45;97575.34;6298946;28;19920;-74
2023/05/09 12:39:40;;;;;;;;;;;;;;;21.56;13.50;97577.00;6299273;28;19921;-74
2023/05/09 12:42:44;;;;;;;;;;;;;;;21.78;13.25;97565.84;6299017;28;19920;-75
2023/05/09 12:45:51;;;;;;;;;;;;;;;21.70;13.42;97573.81;6298224;28;20980;-74
2023/05/09 12:48:54;;;;;;;;;;;;;;;21.29;13.74;97576.84;6298257;28;19920;-75
2023/05/09 12:51:59;;;;;;;;;;;;;;;20.96;13.69;97577.44;6299499;28;19920;-74
2023/05/09 12:55:08;;;;;;;;;;;;;;;20.79;13.81;97584.41;6298839;28;19920;-76
2023/05/09 12:58:13;;;;;;;;;;;;;;;20.62;14.16;97578.81;6298858;28;19920;-75
2023/05/09 13:01:17;;;;;;;;;;;;;;;20.27;14.18;97562.53;6298353;28;19925;-74
2023/05/09 13:04:19;;;;;;;;;;;;;;;19.82;14.31;97572.03;6298362;28;19920;-75
2023/05/09 13:07:20;;;;;;;;;;;;;;;19.35;15.02;97581.63;6297731;28;19920;-75
2023/05/09 13:10:26;;;;;;;;;;;;;;;18.99;14.91;97582.06;6297926;28;20408;-74
2023/05/09 13:13:30;;;;;;;;;;;;;;;18.83;15.19;97582.56;6298179;28;19920;-75
2023/05/09 13:16:33;;;;;;;;;;;;;;;18.64;15.23;97585.09;6298643;28;19924;-75
2023/05/09 13:19:38;;;;;;;;;;;;;;;18.50;15.09;97590.78;6298426;28;19921;-76
2023/05/09 13:22:39;;;;;;;;;;;;;;;18.27;15.53;97585.59;6297143;28;19927;-75
2023/05/09 13:25:43;;;;;;;;;;;;;;;18.19;15.49;97588.06;6296340;28;19924;-75
2023/05/09 13:28:44;;;;;;;;;;;;;;;18.09;15.59;97581.84;6297039;28;19920;-75
2023/05/09 13:31:49;;;;;;;;;;;;;;;17.91;15.79;97573.56;6298088;28;20475;-75
2023/05/09 13:34:51;;;;;;;;;;;;;;;17.72;15.71;97569.75;6297118;28;19927;-74
2023/05/09 13:37:54;;;;;;;;;;;;;;;17.51;15.95;97572.34;6298074;28;19924;-74
2023/05/09 13:41:00;;;;;;;;;;;;;;;17.31;16.06;97570.47;6297949;28;19920;-76
2023/05/09 13:44:01;;;;;;;;;;;;;;;17.18;16.08;97575.06;6279304;28;19927;-74
2023/05/09 13:47:02;;;;;;;;;;;;;;;17.10;16.36;97577.50;6297202;28;19943;-74
2023/05/09 13:50:03;;;;;;;;;;;;;;;16.96;16.50;97587.44;6296518;28;19928;-74
2023/05/09 13:53:09;;;;;;;;;;;;;;;16.90;16.40;97576.44;6297977;28;20297;-74
2023/05/09 13:56:13;;;;;;;;;;;;;;;16.87;16.52;97582.84;6297895;28;19920;-75
2023/05/09 13:59:14;;;;;;;;;;;;;;;16.90;16.55;97585.28;6297574;28;19935;-75
2023/05/09 14:02:15;;;;;;;;;;;;;;;17.04;16.41;97576.16;6296761;28;19920;-74
2023/05/09 14:05:18;;;;;;;;;;;;;;;16.98;16.47;97572.19;6296794;28;19973;-75
2023/05/09 14:08:20;;;;;;;;;;;;;;;16.88;16.93;97573.91;6296770;28;19935;-74
2023/05/09 14:11:25;;;;;;;;;;;;;;;16.79;16.59;97574.63;6297160;28;19920;-75
2023/05/09 14:14:31;;;;;;;;;;;;;;;16.71;16.61;97571.72;6297022;28;19920;-74
2023/05/09 14:17:35;;;;;;;;;;;;;;;16.60;16.76;97576.03;6296482;28;19920;-74
2023/05/09 14:20:36;;;;;;;;;;;;;;;16.47;16.95;97569.97;6296954;28;19924;-76
2023/05/09 14:23:40;;;;;;;;;;;;;;;16.37;16.99;97574.34;6297098;28;19920;-74
2023/05/09 14:26:44;;;;;;;;;;;;;;;16.30;17.04;97567.78;6296727;28;19920;-75
2023/05/09 14:29:45;;;;;;;;;;;;;;;16.20;17.09;97569.47;6295577;28;19924;-74
2023/05/09 14:32:48;;;;;;;;;;;;;;;16.02;17.36;97572.56;6296698;28;20433;-75
2023/05/09 14:35:51;;;;;;;;;;;;;;;15.76;17.49;97571.84;6296596;28;20349;-76
2023/05/09 14:38:53;;;;;;;;;;;;;;;15.60;17.56;97566.84;6295285;28;20057;-75
2023/05/09 14:41:54;;;;;;;;;;;;;;;15.49;17.78;97564.13;6295313;28;19920;-76
2023/05/09 14:44:57;;;;;;;;;;;;;;;15.51;18.22;97559.53;6295477;28;19920;-75
2023/05/09 14:48:03;;;;;;;;;;;;;;;15.27;18.10;97562.19;6296459;28;20081;-74
2023/05/09 14:51:07;;;;;;;;;;;;;;;15.33;18.51;97560.91;6296333;28;20298;-76
2023/05/09 14:54:10;;;;;;;;;;;;;;;15.05;18.39;97561.09;6295140;28;20254;-74
2023/05/09 14:57:13;;;;;;;;;;;;;;;14.91;18.45;97561.22;6295081;28;20443;-74
2023/05/09 15:00:17;;;;;;;;;;;;;;;14.80;18.42;97563.78;6296061;28;19920;-74
2023/05/09 15:03:20;;;;;;;;;;;;;;;14.72;18.55;97561.72;6295674;28;20317;-74
2023/05/09 15:06:22;;;;;;;;;;;;;;;14.67;18.55;97557.69;6294801;28;19928;-73
2023/05/09 15:09:23;;;;;;;;;;;;;;;14.59;18.73;97556.41;6296034;28;19990;-74
2023/05/09 15:12:24;;;;;;;;;;;;;;;14.46;18.76;97554.69;6295765;28;19935;-74
2023/05/09 15:15:28;;;;;;;;;;;;;;;14.47;19.17;97556.41;6295983;28;19959;-74
2023/05/09 15:18:32;;;;;;;;;;;;;;;14.26;19.32;97556.06;6294916;28;19943;-74
2023/05/09 15:21:33;;;;;;;;;;;;;;;14.17;19.22;97557.56;6295221;28;19920;-75
2023/05/09 15:24:35;;;;;;;;;;;;;;;14.08;19.36;97558.19;6277444;28;20028;-74
2023/05/09 15:27:36;;;;;;;;;;;;;;;14.00;19.33;97548.13;6294401;28;19920;-75
2023/05/09 15:30:40;;;;;;;;;;;;;;;13.97;19.20;97548.34;6295404;28;20352;-75
2023/05/09 15:33:43;;;;;;;;;;;;;;;13.88;19.43;97555.09;6295669;28;19920;-75
2023/05/09 15:36:44;;;;;;;;;;;;;;;13.83;19.42;97551.91;6276783;28;19982;-75
2023/05/09 15:39:50;;;;;;;;;;;;;;;13.77;19.87;97551.47;6295461;28;19920;-76
2023/05/09 15:42:53;;;;;;;;;;;;;;;13.67;20.05;97557.38;6295456;28;19951;-75
2023/05/09 15:45:57;;;;;;;;;;;;;;;13.61;20.13;97552.47;6294261;28;20023;-75
2023/05/09 15:48:58;;;;;;;;;;;;;;;13.55;20.04;97558.19;6295002;28;19927;-75
2023/05/09 15:52:02;;;;;;;;;;;;;;;13.47;20.01;97553.41;6294799;28;20363;-76
2023/05/09 15:55:08;;;;;;;;;;;;;;;13.46;20.26;97562.28;6295008;28;19919;-76
2023/05/09 15:58:12;;;;;;;;;;;;;;;13.39;20.27;97557.47;6294729;28;20309;-76
2023/05/09 16:01:16;;;;;;;;;;;;;;;13.35;20.20;97566.56;6295332;28;19920;-75
2023/05/09 16:04:19;;;;;;;;;;;;;;;13.32;20.39;97572.91;6294865;28;19920;-75